Time;durP1;ratioP1;P1;durP2;ratioP2;P2;SDS_P1;SDS_P2;PMS_P1;PMS_P2;Temp;Humidity;BMP_temperature;BMP_pressure;BME280_temperature;BME280_humidity;BME280_pressure;Samples;Min_cycle;Max_cycle;Signal;HPM_P1;HPM_P2
2021/12/14 00:01:48;;;;;;;10.03;7.90;;;;;;;;;;5024415;28;20603;-79
2021/12/14 00:04:17;;;;;;;9.20;7.13;;;;;;;;;;5033595;28;20234;-79
2021/12/14 00:06:45;;;;;;;8.23;7.27;;;;;;;;;;5034179;28;20568;-80
2021/12/14 00:09:24;;;;;;;9.33;7.40;;;;;;;;;;5033610;28;20250;-79
2021/12/14 00:12:07;;;;;;;9.50;8.00;;;;;;;;;;5033883;28;20194;-79
2021/12/14 00:17:20;;;;;;;9.80;7.60;;;;;;;;;;5018456;28;20218;-80
2021/12/14 00:19:48;;;;;;;9.43;7.37;;;;;;;;;;5033088;28;20877;-79
2021/12/14 00:22:26;;;;;;;9.27;7.30;;;;;;;;;;5035321;28;20225;-79
2021/12/14 00:24:52;;;;;;;9.10;7.07;;;;;;;;;;5034746;28;20238;-79
2021/12/14 00:27:22;;;;;;;6.63;5.97;;;;;;;;;;5033896;28;20234;-78
2021/12/14 00:29:51;;;;;;;6.63;5.83;;;;;;;;;;5033222;28;20230;-79
2021/12/14 00:32:20;;;;;;;7.60;6.00;;;;;;;;;;5032895;28;20231;-79
2021/12/14 00:34:47;;;;;;;8.67;6.97;;;;;;;;;;5013872;28;20238;-80
2021/12/14 00:37:16;;;;;;;7.07;6.33;;;;;;;;;;5017852;28;20227;-80
2021/12/14 00:39:44;;;;;;;7.03;6.30;;;;;;;;;;5035210;28;20291;-80
2021/12/14 00:42:11;;;;;;;6.80;6.10;;;;;;;;;;5034725;28;20210;-79
2021/12/14 00:44:39;;;;;;;8.03;6.10;;;;;;;;;;5036650;28;20249;-80
2021/12/14 00:47:06;;;;;;;7.57;6.60;;;;;;;;;;5037648;28;20226;-80
2021/12/14 00:49:34;;;;;;;8.90;7.07;;;;;;;;;;5037777;28;20241;-80
2021/12/14 00:52:01;;;;;;;7.57;6.77;;;;;;;;;;5035868;28;20230;-79
2021/12/14 00:54:28;;;;;;;8.70;6.87;;;;;;;;;;5035640;28;20227;-79
2021/12/14 00:56:55;;;;;;;8.90;6.83;;;;;;;;;;5034180;28;20230;-79
2021/12/14 00:59:23;;;;;;;8.33;6.77;;;;;;;;;;5034388;28;20226;-78
2021/12/14 01:01:52;;;;;;;8.93;6.07;;;;;;;;;;5037952;28;20679;-80
2021/12/14 01:04:21;;;;;;;10.60;6.70;;;;;;;;;;5020302;28;20230;-79
2021/12/14 01:06:48;;;;;;;6.93;6.10;;;;;;;;;;5038967;28;20231;-79
2021/12/14 01:09:17;;;;;;;9.30;6.40;;;;;;;;;;5038103;28;20226;-79
2021/12/14 01:11:46;;;;;;;8.10;6.17;;;;;;;;;;5036704;28;20202;-79
2021/12/14 01:14:16;;;;;;;7.80;6.40;;;;;;;;;;5036152;28;20266;-79
2021/12/14 01:16:53;;;;;;;10.10;6.67;;;;;;;;;;5036366;28;20272;-79
2021/12/14 01:19:26;;;;;;;7.30;6.53;;;;;;;;;;5034372;28;20230;-80
2021/12/14 01:22:14;;;;;;;7.30;6.27;;;;;;;;;;5033904;28;20195;-79
2021/12/14 01:25:02;;;;;;;8.30;6.43;;;;;;;;;;5032348;28;20648;-80
2021/12/14 01:27:35;;;;;;;8.83;7.07;;;;;;;;;;5019507;28;20257;-79
2021/12/14 01:30:05;;;;;;;8.60;7.10;;;;;;;;;;5031852;28;20720;-79
2021/12/14 01:32:36;;;;;;;8.13;6.87;;;;;;;;;;5032710;28;20756;-80
2021/12/14 01:35:10;;;;;;;10.40;7.27;;;;;;;;;;5031736;28;20238;-79
2021/12/14 01:37:43;;;;;;;9.40;7.63;;;;;;;;;;5033216;28;20226;-79
2021/12/14 01:40:18;;;;;;;9.63;7.77;;;;;;;;;;5033101;28;20614;-79
2021/12/14 01:42:48;;;;;;;7.40;6.70;;;;;;;;;;5033657;28;20193;-79
2021/12/14 01:45:18;;;;;;;9.47;7.20;;;;;;;;;;5031697;28;20234;-80
2021/12/14 01:47:47;;;;;;;8.57;7.10;;;;;;;;;;5031450;28;20230;-79
2021/12/14 01:50:18;;;;;;;7.87;6.80;;;;;;;;;;5031623;28;20241;-79
2021/12/14 01:52:45;;;;;;;9.33;7.53;;;;;;;;;;5031504;28;20245;-79
2021/12/14 01:55:13;;;;;;;9.00;7.63;;;;;;;;;;5031163;28;20238;-79
2021/12/14 01:57:41;;;;;;;9.87;8.00;;;;;;;;;;5031449;28;20591;-79
2021/12/14 02:00:10;;;;;;;9.20;7.77;;;;;;;;;;5031501;28;20234;-79
2021/12/14 02:02:42;;;;;;;9.13;7.40;;;;;;;;;;5031219;28;20199;-79
2021/12/14 02:05:11;;;;;;;9.07;7.47;;;;;;;;;;5031065;28;20227;-80
2021/12/14 02:07:39;;;;;;;8.57;7.23;;;;;;;;;;5030900;28;20628;-79
2021/12/14 02:10:08;;;;;;;10.20;7.83;;;;;;;;;;5031207;28;20242;-79
2021/12/14 02:12:36;;;;;;;10.17;7.73;;;;;;;;;;5031888;28;20284;-80
2021/12/14 02:15:06;;;;;;;9.80;7.80;;;;;;;;;;5031129;28;20230;-79
2021/12/14 02:17:33;;;;;;;11.03;7.83;;;;;;;;;;5031594;28;20226;-79
2021/12/14 02:20:01;;;;;;;8.80;7.63;;;;;;;;;;5030857;28;20234;-79
2021/12/14 02:22:29;;;;;;;9.77;7.67;;;;;;;;;;5031716;28;20202;-79
2021/12/14 02:24:56;;;;;;;10.07;8.23;;;;;;;;;;5030614;28;20237;-80
2021/12/14 02:27:23;;;;;;;10.07;7.90;;;;;;;;;;5031465;28;20233;-79
2021/12/14 02:29:51;;;;;;;9.77;7.60;;;;;;;;;;5030981;28;20614;-80
2021/12/14 02:32:20;;;;;;;10.43;7.97;;;;;;;;;;5031164;28;20252;-80
2021/12/14 02:34:50;;;;;;;9.47;7.57;;;;;;;;;;5030833;28;20649;-79
2021/12/14 02:37:21;;;;;;;10.17;8.00;;;;;;;;;;5031380;28;20276;-79
2021/12/14 02:40:02;;;;;;;9.73;7.30;;;;;;;;;;5031291;28;20313;-79
2021/12/14 02:42:30;;;;;;;9.20;7.90;;;;;;;;;;5030966;28;20197;-79
2021/12/14 02:44:58;;;;;;;11.83;8.57;;;;;;;;;;5030535;28;20297;-79
2021/12/14 02:47:26;;;;;;;9.37;8.17;;;;;;;;;;5031278;28;20227;-79
2021/12/14 02:49:53;;;;;;;8.93;7.70;;;;;;;;;;5030831;28;20234;-80
2021/12/14 02:52:27;;;;;;;9.73;7.93;;;;;;;;;;5031310;28;20651;-80
2021/12/14 02:54:57;;;;;;;13.07;8.23;;;;;;;;;;5015501;28;20233;-79
2021/12/14 02:57:26;;;;;;;10.77;8.47;;;;;;;;;;5051089;23;20235;-79
2021/12/14 02:59:55;;;;;;;10.47;8.87;;;;;;;;;;5031748;28;20233;-79
2021/12/14 03:02:23;;;;;;;10.67;8.73;;;;;;;;;;5052772;28;20202;-80
2021/12/14 03:04:52;;;;;;;10.90;9.23;;;;;;;;;;5032358;28;20266;-80
2021/12/14 03:07:22;;;;;;;9.97;8.13;;;;;;;;;;5033667;28;20235;-80
2021/12/14 03:09:57;;;;;;;9.97;8.50;;;;;;;;;;5028390;28;20234;-80
2021/12/14 03:12:31;;;;;;;10.27;8.47;;;;;;;;;;5056758;28;20224;-80
2021/12/14 03:15:01;;;;;;;11.20;8.63;;;;;;;;;;5059400;28;20766;-80
2021/12/14 03:17:28;;;;;;;10.33;8.63;;;;;;;;;;5056687;28;20225;-80
2021/12/14 03:19:57;;;;;;;12.40;9.47;;;;;;;;;;5054045;28;20721;-80
2021/12/14 03:22:26;;;;;;;10.43;8.87;;;;;;;;;;5051543;28;20203;-80
2021/12/14 03:24:55;;;;;;;11.53;8.37;;;;;;;;;;5053369;28;20237;-80
2021/12/14 03:27:22;;;;;;;10.23;8.33;;;;;;;;;;5053363;28;20276;-80
2021/12/14 03:29:50;;;;;;;10.20;8.70;;;;;;;;;;5053699;28;20582;-80
2021/12/14 03:32:17;;;;;;;11.47;9.10;;;;;;;;;;5055492;28;20615;-80
2021/12/14 03:34:44;;;;;;;12.37;8.90;;;;;;;;;;5053388;28;20609;-80
2021/12/14 03:37:13;;;;;;;11.40;8.70;;;;;;;;;;5047919;28;20608;-80
2021/12/14 03:39:41;;;;;;;13.63;9.57;;;;;;;;;;5047835;28;20233;-80
2021/12/14 03:42:11;;;;;;;11.60;8.73;;;;;;;;;;5055807;28;20658;-80
2021/12/14 03:44:40;;;;;;;13.27;9.37;;;;;;;;;;5055386;28;20442;-80
2021/12/14 03:47:12;;;;;;;11.97;9.27;;;;;;;;;;5055153;28;20304;-80
2021/12/14 03:49:40;;;;;;;13.13;8.87;;;;;;;;;;5051354;28;20233;-80
2021/12/14 03:52:07;;;;;;;10.33;8.90;;;;;;;;;;5057553;28;20210;-80
2021/12/14 03:54:35;;;;;;;12.70;9.17;;;;;;;;;;5055496;28;20639;-80
2021/12/14 03:57:02;;;;;;;12.03;8.73;;;;;;;;;;5053187;28;20241;-80
2021/12/14 03:59:30;;;;;;;12.00;9.53;;;;;;;;;;5055253;28;20229;-80
2021/12/14 04:01:59;;;;;;;11.67;9.30;;;;;;;;;;5046427;28;20582;-80
2021/12/14 04:04:28;;;;;;;15.57;12.00;;;;;;;;;;5062188;28;20257;-80
2021/12/14 04:06:57;;;;;;;19.13;13.20;;;;;;;;;;5056209;28;20228;-80
2021/12/14 04:09:26;;;;;;;26.50;16.20;;;;;;;;;;5049681;28;20233;-80
2021/12/14 04:11:53;;;;;;;27.83;16.17;;;;;;;;;;5058097;28;20213;-80
2021/12/14 04:14:21;;;;;;;17.47;12.40;;;;;;;;;;5042546;28;20226;-80
2021/12/14 04:16:49;;;;;;;13.07;10.07;;;;;;;;;;5055220;28;20252;-80
2021/12/14 04:19:20;;;;;;;13.83;9.70;;;;;;;;;;5043877;28;20702;-80
2021/12/14 04:21:49;;;;;;;12.40;9.43;;;;;;;;;;5055263;28;20202;-80
2021/12/14 04:24:21;;;;;;;13.23;9.80;;;;;;;;;;5051949;28;20229;-80
2021/12/14 04:26:48;;;;;;;14.37;10.30;;;;;;;;;;5052411;28;20226;-80
2021/12/14 04:29:16;;;;;;;16.10;10.57;;;;;;;;;;5041452;28;20740;-80
2021/12/14 04:31:44;;;;;;;14.17;10.33;;;;;;;;;;5049446;28;20666;-80
2021/12/14 04:34:11;;;;;;;16.10;10.73;;;;;;;;;;5054826;28;20295;-80
2021/12/14 04:36:40;;;;;;;15.40;10.27;;;;;;;;;;5046065;28;20226;-80
2021/12/14 04:39:31;;;;;;;13.77;10.50;;;;;;;;;;5050262;28;20233;-80
2021/12/14 04:53:05;;;;;;;21.60;15.00;;;;;;;;;;5038046;28;20198;-81
2021/12/14 04:55:33;;;;;;;24.83;15.20;;;;;;;;;;5036412;28;20242;-80
2021/12/14 04:58:00;;;;;;;19.80;12.77;;;;;;;;;;5050256;28;20248;-80
2021/12/14 05:00:29;;;;;;;25.80;16.67;;;;;;;;;;5050871;28;20257;-81
2021/12/14 05:02:58;;;;;;;29.37;17.93;;;;;;;;;;5053110;28;20206;-80
2021/12/14 05:05:27;;;;;;;23.83;16.13;;;;;;;;;;5051456;28;20234;-80
2021/12/14 05:10:42;;;;;;;11.47;7.73;;;;;;;;;;5057178;28;20313;-81
2021/12/14 05:13:09;;;;;;;28.83;17.03;;;;;;;;;;5057389;28;20206;-81
2021/12/14 05:15:37;;;;;;;30.50;18.10;;;;;;;;;;5057402;28;20249;-81
2021/12/14 05:18:09;;;;;;;26.40;16.83;;;;;;;;;;5057899;28;20232;-81
2021/12/14 05:20:36;;;;;;;31.80;19.53;;;;;;;;;;5054661;28;20226;-81
2021/12/14 05:23:04;;;;;;;30.43;18.70;;;;;;;;;;5052642;28;20765;-81
2021/12/14 05:25:32;;;;;;;31.20;19.40;;;;;;;;;;5054935;28;20249;-81
2021/12/14 05:28:02;;;;;;;26.33;16.43;;;;;;;;;;5048242;28;20322;-81
2021/12/14 05:30:34;;;;;;;30.90;18.50;;;;;;;;;;5048267;28;20235;-81
2021/12/14 05:33:03;;;;;;;33.20;20.60;;;;;;;;;;5050373;28;20218;-81
2021/12/14 05:35:30;;;;;;;35.13;19.40;;;;;;;;;;5048642;28;20225;-81
2021/12/14 05:37:59;;;;;;;32.40;18.53;;;;;;;;;;5049788;28;20234;-81
2021/12/14 05:40:43;;;;;;;34.13;20.20;;;;;;;;;;5051597;28;20708;-81
2021/12/14 05:43:11;;;;;;;31.93;20.03;;;;;;;;;;5052081;28;20216;-80
2021/12/14 05:45:41;;;;;;;20.93;13.87;;;;;;;;;;5052420;28;20707;-82
2021/12/14 05:48:09;;;;;;;23.47;16.10;;;;;;;;;;5054391;28;20255;-82
2021/12/14 05:50:38;;;;;;;24.93;16.10;;;;;;;;;;5055745;28;20237;-82
2021/12/14 05:53:07;;;;;;;23.53;15.77;;;;;;;;;;5056201;28;20202;-82
2021/12/14 05:55:35;;;;;;;27.30;16.93;;;;;;;;;;5048694;28;20242;-82
2021/12/14 05:58:04;;;;;;;23.70;16.13;;;;;;;;;;5054647;28;20297;-82
2021/12/14 06:00:33;;;;;;;27.67;17.20;;;;;;;;;;5045276;28;20328;-82
2021/12/14 06:03:00;;;;;;;20.53;13.90;;;;;;;;;;5051451;28;20206;-83
2021/12/14 06:05:29;;;;;;;21.73;13.57;;;;;;;;;;5050956;28;20234;-82
2021/12/14 06:07:57;;;;;;;19.50;13.47;;;;;;;;;;5053559;28;20280;-82
2021/12/14 06:10:26;;;;;;;25.07;15.70;;;;;;;;;;5052898;28;20230;-84
2021/12/14 06:12:53;;;;;;;21.80;13.57;;;;;;;;;;5057907;28;20206;-83
2021/12/14 06:15:26;;;;;;;19.77;13.13;;;;;;;;;;5053486;28;20696;-82
2021/12/14 06:17:54;;;;;;;22.53;14.03;;;;;;;;;;5057698;28;20284;-82
2021/12/14 06:20:23;;;;;;;23.77;14.70;;;;;;;;;;5056578;28;20241;-82
2021/12/14 06:22:52;;;;;;;24.37;15.00;;;;;;;;;;5054640;28;20225;-84
2021/12/14 06:25:20;;;;;;;27.30;17.43;;;;;;;;;;5054523;28;20287;-83
2021/12/14 06:27:48;;;;;;;31.13;18.13;;;;;;;;;;5055624;28;20926;-83
2021/12/14 06:30:17;;;;;;;38.93;22.57;;;;;;;;;;5055468;28;20613;-84
2021/12/14 06:32:45;;;;;;;41.47;22.17;;;;;;;;;;5054817;28;20214;-84
2021/12/14 06:35:17;;;;;;;34.83;22.23;;;;;;;;;;5055066;28;20234;-84
2021/12/14 06:38:10;;;;;;;36.23;21.50;;;;;;;;;;5055758;28;20316;-84
2021/12/14 06:40:40;;;;;;;36.23;21.07;;;;;;;;;;5055029;28;20237;-84
2021/12/14 06:43:09;;;;;;;38.13;22.33;;;;;;;;;;5057023;28;20669;-83
2021/12/14 06:45:38;;;;;;;40.57;23.17;;;;;;;;;;5057651;28;20275;-83
2021/12/14 06:48:07;;;;;;;33.20;20.57;;;;;;;;;;5058808;28;20230;-84
2021/12/14 06:50:37;;;;;;;33.43;21.37;;;;;;;;;;5056071;28;20240;-84
2021/12/14 06:53:07;;;;;;;32.87;21.00;;;;;;;;;;5057627;28;20193;-84
2021/12/14 06:55:35;;;;;;;35.40;21.60;;;;;;;;;;5057969;28;20237;-84
2021/12/14 06:58:07;;;;;;;35.83;20.97;;;;;;;;;;5057983;28;20291;-84
2021/12/14 07:00:35;;;;;;;36.63;21.17;;;;;;;;;;5058231;28;20258;-84
2021/12/14 07:03:02;;;;;;;38.87;21.13;;;;;;;;;;5059717;28;20217;-82
2021/12/14 07:05:30;;;;;;;35.50;20.60;;;;;;;;;;5058978;28;20237;-82
2021/12/14 07:07:59;;;;;;;37.50;20.93;;;;;;;;;;5059898;28;20234;-82
2021/12/14 07:10:26;;;;;;;37.80;21.57;;;;;;;;;;5060354;28;20241;-82
2021/12/14 07:12:53;;;;;;;35.93;19.90;;;;;;;;;;5059751;28;20224;-82
2021/12/14 07:15:21;;;;;;;33.93;21.00;;;;;;;;;;5059080;28;20230;-82
2021/12/14 07:17:54;;;;;;;33.43;21.27;;;;;;;;;;5059890;28;20236;-82
2021/12/14 07:20:31;;;;;;;40.90;20.57;;;;;;;;;;5059691;28;20252;-82
2021/12/14 07:23:02;;;;;;;34.33;20.53;;;;;;;;;;5058706;28;20263;-83
2021/12/14 07:25:30;;;;;;;33.97;20.10;;;;;;;;;;5058926;28;20234;-82
2021/12/14 07:27:58;;;;;;;34.20;20.33;;;;;;;;;;5059498;28;20284;-82
2021/12/14 07:31:02;;;;;;;34.27;20.60;;;;;;;;;;5058825;28;20237;-83
2021/12/14 07:33:31;;;;;;;28.33;18.17;;;;;;;;;;5058752;28;20198;-83
2021/12/14 07:36:00;;;;;;;34.73;20.43;;;;;;;;;;5058207;28;20293;-82
2021/12/14 07:38:31;;;;;;;36.13;22.07;;;;;;;;;;5059096;28;20202;-82
2021/12/14 07:41:00;;;;;;;39.97;23.43;;;;;;;;;;5058731;28;20213;-82
2021/12/14 07:43:29;;;;;;;35.43;21.03;;;;;;;;;;5059225;28;20213;-82
2021/12/14 07:45:56;;;;;;;35.73;20.87;;;;;;;;;;5058755;28;20230;-82
2021/12/14 07:48:38;;;;;;;34.20;19.70;;;;;;;;;;5054345;28;20198;-83
2021/12/14 07:51:05;;;;;;;31.03;18.60;;;;;;;;;;5056137;28;20272;-82
2021/12/14 07:53:40;;;;;;;31.80;19.40;;;;;;;;;;5051373;28;20208;-82
2021/12/14 07:56:08;;;;;;;33.07;21.27;;;;;;;;;;5054991;28;20248;-82
2021/12/14 07:58:36;;;;;;;29.50;21.47;;;;;;;;;;5055968;28;20651;-82
2021/12/14 08:01:04;;;;;;;28.77;20.57;;;;;;;;;;5058215;28;20206;-82
2021/12/14 08:03:33;;;;;;;28.40;18.77;;;;;;;;;;5057840;28;20214;-82
2021/12/14 08:06:02;;;;;;;26.70;18.30;;;;;;;;;;5057110;28;20222;-82
2021/12/14 08:08:41;;;;;;;25.67;19.17;;;;;;;;;;5039134;28;20198;-82
2021/12/14 08:11:29;;;;;;;25.73;18.63;;;;;;;;;;5038175;28;20246;-83
2021/12/14 08:13:57;;;;;;;19.53;13.47;;;;;;;;;;5038180;28;20235;-83
2021/12/14 08:16:24;;;;;;;29.00;18.07;;;;;;;;;;5042396;28;20225;-83
2021/12/14 08:18:53;;;;;;;24.37;14.30;;;;;;;;;;5056964;28;20297;-83
2021/12/14 08:21:22;;;;;;;20.60;15.10;;;;;;;;;;5057558;28;20255;-82
2021/12/14 08:23:54;;;;;;;25.20;17.50;;;;;;;;;;5057057;28;20190;-82
2021/12/14 08:26:26;;;;;;;26.87;18.70;;;;;;;;;;5057536;28;20604;-81
2021/12/14 08:28:56;;;;;;;26.13;17.27;;;;;;;;;;5057172;28;20309;-81
2021/12/14 08:31:24;;;;;;;29.50;17.23;;;;;;;;;;5057111;28;20214;-81
2021/12/14 08:33:55;;;;;;;27.67;19.57;;;;;;;;;;5055626;28;20237;-82
2021/12/14 08:36:23;;;;;;;29.97;19.07;;;;;;;;;;5048719;28;20231;-82
2021/12/14 08:39:01;;;;;;;27.43;18.80;;;;;;;;;;5036443;28;20238;-82
2021/12/14 08:41:30;;;;;;;25.67;18.30;;;;;;;;;;5037273;28;20215;-82
2021/12/14 08:43:57;;;;;;;22.03;14.90;;;;;;;;;;5047011;28;20245;-82
2021/12/14 08:46:27;;;;;;;27.83;17.40;;;;;;;;;;5057867;28;20226;-82
2021/12/14 08:48:55;;;;;;;27.07;18.10;;;;;;;;;;5057266;28;20237;-82
2021/12/14 08:51:25;;;;;;;26.33;14.97;;;;;;;;;;5057210;28;20213;-82
2021/12/14 08:53:55;;;;;;;21.90;16.43;;;;;;;;;;5055639;28;20301;-83
2021/12/14 08:56:22;;;;;;;26.23;17.63;;;;;;;;;;5065693;22;20283;-79
2021/12/14 08:58:52;;;;;;;27.43;19.00;;;;;;;;;;5073303;28;20205;-77
2021/12/14 09:01:22;;;;;;;26.27;16.10;;;;;;;;;;5056454;28;20213;-78
2021/12/14 09:03:54;;;;;;;27.33;18.60;;;;;;;;;;5056959;28;20210;-78
2021/12/14 09:06:22;;;;;;;27.93;19.63;;;;;;;;;;5056913;28;20616;-79
2021/12/14 09:08:50;;;;;;;29.60;19.87;;;;;;;;;;5064109;28;20209;-78
2021/12/14 09:11:19;;;;;;;31.77;20.27;;;;;;;;;;5069344;28;20201;-78
2021/12/14 09:13:46;;;;;;;26.87;18.87;;;;;;;;;;5075821;28;20201;-78
2021/12/14 09:16:16;;;;;;;27.07;16.77;;;;;;;;;;5076455;28;20229;-78
2021/12/14 09:18:45;;;;;;;23.43;16.60;;;;;;;;;;5076033;28;20416;-79
2021/12/14 09:21:14;;;;;;;23.80;16.70;;;;;;;;;;5075643;28;20206;-79
2021/12/14 09:23:44;;;;;;;26.43;17.50;;;;;;;;;;5058321;28;20206;-78
2021/12/14 09:26:13;;;;;;;24.57;16.67;;;;;;;;;;5054824;28;20210;-78
2021/12/14 09:28:41;;;;;;;31.03;19.30;;;;;;;;;;5055279;28;20206;-78
2021/12/14 09:31:09;;;;;;;24.73;17.83;;;;;;;;;;5055612;28;20785;-78
2021/12/14 09:33:40;;;;;;;27.87;18.40;;;;;;;;;;5054993;28;20209;-79
2021/12/14 09:36:12;;;;;;;27.63;17.60;;;;;;;;;;5054418;28;20788;-78
2021/12/14 09:38:40;;;;;;;30.17;18.27;;;;;;;;;;5054779;28;20210;-78
2021/12/14 09:41:08;;;;;;;27.47;17.43;;;;;;;;;;5051856;28;20210;-78
2021/12/14 09:43:36;;;;;;;26.50;16.30;;;;;;;;;;5043848;28;20211;-78
2021/12/14 09:46:04;;;;;;;27.77;16.77;;;;;;;;;;5035444;28;20202;-78
2021/12/14 09:48:34;;;;;;;25.97;16.53;;;;;;;;;;5035057;28;20230;-78
2021/12/14 09:51:07;;;;;;;19.33;12.10;;;;;;;;;;5032334;28;20252;-76
2021/12/14 09:53:35;;;;;;;15.87;11.53;;;;;;;;;;5030860;28;20211;-76
2021/12/14 09:56:02;;;;;;;24.83;15.90;;;;;;;;;;5031659;28;20230;-77
2021/12/14 09:58:31;;;;;;;29.33;15.97;;;;;;;;;;5031370;28;20234;-77
2021/12/14 10:00:59;;;;;;;26.87;16.03;;;;;;;;;;5050456;28;20233;-77
2021/12/14 10:03:27;;;;;;;24.90;16.00;;;;;;;;;;5050478;28;20220;-77
2021/12/14 10:05:56;;;;;;;26.37;15.53;;;;;;;;;;5050821;28;20229;-77
2021/12/14 10:08:26;;;;;;;25.23;15.57;;;;;;;;;;5051675;28;20728;-77
2021/12/14 10:11:01;;;;;;;25.03;16.13;;;;;;;;;;5033967;28;20241;-78
2021/12/14 10:13:28;;;;;;;21.60;14.93;;;;;;;;;;5031377;28;20760;-77
2021/12/14 10:15:58;;;;;;;27.67;16.27;;;;;;;;;;5030817;28;20634;-77
2021/12/14 10:18:27;;;;;;;25.87;15.77;;;;;;;;;;5034691;28;20226;-77
2021/12/14 10:20:55;;;;;;;24.70;14.50;;;;;;;;;;5035188;28;20246;-78
2021/12/14 10:23:25;;;;;;;24.60;15.77;;;;;;;;;;5035353;28;20211;-78
2021/12/14 10:25:53;;;;;;;23.83;14.63;;;;;;;;;;5034880;28;20226;-77
2021/12/14 10:28:22;;;;;;;21.80;14.17;;;;;;;;;;5049495;28;20248;-77
2021/12/14 10:30:54;;;;;;;21.77;13.47;;;;;;;;;;5054678;28;20238;-78
2021/12/14 10:33:22;;;;;;;21.70;15.17;;;;;;;;;;5055316;28;20206;-77
2021/12/14 10:35:52;;;;;;;21.90;14.43;;;;;;;;;;5054172;28;20230;-77
2021/12/14 10:38:26;;;;;;;22.00;14.80;;;;;;;;;;5054760;28;20633;-77
2021/12/14 10:43:41;;;;;;;19.90;12.03;;;;;;;;;;5054482;28;20304;-77
2021/12/14 10:46:10;;;;;;;23.70;15.07;;;;;;;;;;5054299;28;20871;-77
2021/12/14 10:48:40;;;;;;;27.70;15.00;;;;;;;;;;5053267;28;20217;-78
2021/12/14 10:51:08;;;;;;;20.60;13.70;;;;;;;;;;5058989;28;20594;-77
2021/12/14 10:53:36;;;;;;;23.73;14.40;;;;;;;;;;5058863;28;20198;-78
2021/12/14 10:56:09;;;;;;;21.17;14.87;;;;;;;;;;5056596;28;20230;-78
2021/12/14 10:58:37;;;;;;;26.00;16.40;;;;;;;;;;5037987;28;20237;-79
2021/12/14 11:01:07;;;;;;;28.43;16.57;;;;;;;;;;5052679;28;20218;-78
2021/12/14 11:03:36;;;;;;;28.33;16.13;;;;;;;;;;5039246;28;20207;-77
2021/12/14 11:06:06;;;;;;;29.27;16.90;;;;;;;;;;5034322;28;20314;-77
2021/12/14 11:08:43;;;;;;;27.93;15.20;;;;;;;;;;5034074;28;20213;-77
2021/12/14 11:11:13;;;;;;;26.20;16.57;;;;;;;;;;5034256;28;20233;-77
2021/12/14 11:13:42;;;;;;;29.63;16.87;;;;;;;;;;5034188;28;20211;-77
2021/12/14 11:16:16;;;;;;;25.63;14.90;;;;;;;;;;5034009;28;20292;-77
2021/12/14 11:18:45;;;;;;;27.47;17.10;;;;;;;;;;5037751;28;20217;-78
2021/12/14 11:21:14;;;;;;;29.97;16.23;;;;;;;;;;5039225;28;20247;-79
2021/12/14 11:23:43;;;;;;;28.00;15.63;;;;;;;;;;5038988;28;20245;-79
2021/12/14 11:26:15;;;;;;;25.83;15.57;;;;;;;;;;5038862;28;20256;-79
2021/12/14 11:28:43;;;;;;;31.07;16.80;;;;;;;;;;5037722;28;20217;-78
2021/12/14 11:31:12;;;;;;;23.83;15.00;;;;;;;;;;5038633;28;20264;-79
2021/12/14 11:33:42;;;;;;;27.90;15.73;;;;;;;;;;5038630;28;20214;-79
2021/12/14 11:36:12;;;;;;;25.40;15.33;;;;;;;;;;5038989;28;20608;-79
2021/12/14 11:38:42;;;;;;;29.50;17.13;;;;;;;;;;5038728;28;20211;-79
2021/12/14 11:41:25;;;;;;;25.93;15.80;;;;;;;;;;5039694;28;20310;-79
2021/12/14 11:43:54;;;;;;;27.23;16.50;;;;;;;;;;5045916;28;20234;-78
2021/12/14 11:46:22;;;;;;;30.00;17.07;;;;;;;;;;5053778;28;20284;-78
2021/12/14 11:48:49;;;;;;;25.73;15.77;;;;;;;;;;5038022;28;20206;-78
2021/12/14 11:51:16;;;;;;;25.30;14.83;;;;;;;;;;5057693;28;20206;-79
2021/12/14 11:53:48;;;;;;;31.03;18.17;;;;;;;;;;5041728;28;20206;-78
2021/12/14 11:56:17;;;;;;;25.33;14.90;;;;;;;;;;5037874;28;20238;-78
2021/12/14 11:58:48;;;;;;;29.90;17.60;;;;;;;;;;5038129;28;20623;-79
2021/12/14 12:01:18;;;;;;;23.53;15.30;;;;;;;;;;5037897;28;20573;-78
2021/12/14 12:03:47;;;;;;;25.17;14.77;;;;;;;;;;5037273;28;20306;-79
2021/12/14 12:06:34;;;;;;;25.47;16.03;;;;;;;;;;5038084;28;20211;-79
2021/12/14 12:11:49;;;;;;;23.77;14.90;;;;;;;;;;5037706;28;20677;-79
2021/12/14 12:14:19;;;;;;;28.67;15.60;;;;;;;;;;5038308;28;20246;-79
2021/12/14 12:16:46;;;;;;;25.20;14.43;;;;;;;;;;5038376;28;20234;-78
2021/12/14 12:19:15;;;;;;;23.33;14.77;;;;;;;;;;5038863;28;20227;-78
2021/12/14 12:21:43;;;;;;;23.97;14.73;;;;;;;;;;5043232;28;20217;-79
2021/12/14 12:24:25;;;;;;;26.63;15.37;;;;;;;;;;5037691;28;20234;-79
2021/12/14 12:26:52;;;;;;;22.63;14.13;;;;;;;;;;5037765;28;20223;-78
2021/12/14 12:29:27;;;;;;;24.90;14.40;;;;;;;;;;5042888;28;20226;-79
2021/12/14 12:32:06;;;;;;;26.37;15.17;;;;;;;;;;5058022;28;20196;-78
2021/12/14 12:34:35;;;;;;;25.80;14.70;;;;;;;;;;5056735;28;20252;-79
2021/12/14 12:37:02;;;;;;;23.53;15.90;;;;;;;;;;5056624;28;20240;-78
2021/12/14 12:39:31;;;;;;;27.27;15.93;;;;;;;;;;5059297;28;20230;-78
2021/12/14 12:41:59;;;;;;;30.00;16.03;;;;;;;;;;5074251;28;20220;-79
2021/12/14 12:44:29;;;;;;;29.20;16.03;;;;;;;;;;5063150;28;20230;-78
2021/12/14 12:46:57;;;;;;;25.73;14.83;;;;;;;;;;5057282;28;20233;-78
2021/12/14 12:49:25;;;;;;;27.93;15.77;;;;;;;;;;5056768;28;20633;-78
2021/12/14 12:52:07;;;;;;;30.70;16.63;;;;;;;;;;5057003;28;20209;-79
2021/12/14 12:54:43;;;;;;;32.40;18.43;;;;;;;;;;5056851;28;20261;-78
2021/12/14 12:57:15;;;;;;;28.77;17.07;;;;;;;;;;5056526;28;20241;-78
2021/12/14 12:59:49;;;;;;;31.03;17.47;;;;;;;;;;5056379;28;20268;-78
2021/12/14 13:02:30;;;;;;;31.07;16.97;;;;;;;;;;5057045;28;20882;-78
2021/12/14 13:04:59;;;;;;;36.73;19.77;;;;;;;;;;5055835;28;20244;-77
2021/12/14 13:07:32;;;;;;;32.60;17.47;;;;;;;;;;5056644;28;20233;-79
2021/12/14 13:10:08;;;;;;;29.00;16.40;;;;;;;;;;5057005;28;20254;-79
2021/12/14 13:12:39;;;;;;;28.77;16.10;;;;;;;;;;5056565;28;20209;-78
2021/12/14 13:15:27;;;;;;;30.50;17.53;;;;;;;;;;5056165;28;20245;-79
2021/12/14 13:18:09;;;;;;;32.07;18.53;;;;;;;;;;5056704;28;20225;-78
2021/12/14 13:20:36;;;;;;;28.63;16.70;;;;;;;;;;5056196;28;20230;-78
2021/12/14 13:23:03;;;;;;;28.67;16.63;;;;;;;;;;5056336;28;20206;-78
2021/12/14 13:25:34;;;;;;;33.20;17.73;;;;;;;;;;5056579;28;20240;-78
2021/12/14 13:28:01;;;;;;;28.13;17.03;;;;;;;;;;5056204;28;20222;-78
2021/12/14 13:30:31;;;;;;;32.77;18.53;;;;;;;;;;5064283;28;20280;-78
2021/12/14 13:32:58;;;;;;;35.00;22.03;;;;;;;;;;5073694;28;20201;-78
2021/12/14 13:35:27;;;;;;;34.63;19.40;;;;;;;;;;5076039;28;20567;-78
2021/12/14 13:37:56;;;;;;;32.80;18.70;;;;;;;;;;5068863;28;20230;-79
2021/12/14 13:40:25;;;;;;;29.03;16.30;;;;;;;;;;5067559;28;20225;-78
2021/12/14 13:42:53;;;;;;;33.67;18.47;;;;;;;;;;5073902;28;20205;-77
2021/12/14 13:45:24;;;;;;;36.93;18.93;;;;;;;;;;5055346;28;20234;-78
2021/12/14 13:47:53;;;;;;;35.40;18.00;;;;;;;;;;5055062;28;20874;-78
2021/12/14 13:50:23;;;;;;;34.50;18.10;;;;;;;;;;5056729;28;20234;-79
2021/12/14 13:52:51;;;;;;;32.83;17.80;;;;;;;;;;5067525;28;20221;-79
2021/12/14 13:55:23;;;;;;;31.90;17.83;;;;;;;;;;5067985;28;20289;-79
2021/12/14 13:57:52;;;;;;;30.67;17.90;;;;;;;;;;5063496;28;20229;-77
2021/12/14 14:00:22;;;;;;;30.37;16.90;;;;;;;;;;5055794;28;20226;-78
2021/12/14 14:02:49;;;;;;;29.73;17.10;;;;;;;;;;5063635;28;20202;-78
2021/12/14 14:05:18;;;;;;;28.13;17.50;;;;;;;;;;5071620;28;20245;-78
2021/12/14 14:07:45;;;;;;;29.27;15.77;;;;;;;;;;5063273;28;20234;-78
2021/12/14 14:10:13;;;;;;;29.13;17.63;;;;;;;;;;5062692;28;20234;-78
2021/12/14 14:12:46;;;;;;;31.77;16.33;;;;;;;;;;5071295;28;20202;-79
2021/12/14 14:15:17;;;;;;;31.00;17.20;;;;;;;;;;5067062;28;20224;-77
2021/12/14 14:17:48;;;;;;;34.33;19.20;;;;;;;;;;5068478;28;20252;-78
2021/12/14 14:20:19;;;;;;;33.67;18.97;;;;;;;;;;5063821;28;20225;-78
2021/12/14 14:22:46;;;;;;;35.17;19.27;;;;;;;;;;5072633;28;20209;-78
2021/12/14 14:25:17;;;;;;;31.97;17.67;;;;;;;;;;5076376;28;20233;-78
2021/12/14 14:27:46;;;;;;;37.83;19.37;;;;;;;;;;5075331;28;20727;-78
2021/12/14 14:30:28;;;;;;;33.27;16.33;;;;;;;;;;5071918;28;20801;-78
2021/12/14 14:32:59;;;;;;;35.70;18.53;;;;;;;;;;5064977;28;20208;-78
2021/12/14 14:35:40;;;;;;;34.70;17.83;;;;;;;;;;5068869;28;20305;-78
2021/12/14 14:38:22;;;;;;;30.40;16.97;;;;;;;;;;5077396;28;20240;-80
2021/12/14 14:40:49;;;;;;;34.70;17.13;;;;;;;;;;5077187;28;20319;-79
2021/12/14 14:43:16;;;;;;;28.07;17.13;;;;;;;;;;5072245;28;20204;-78
2021/12/14 14:45:44;;;;;;;31.90;17.40;;;;;;;;;;5068215;28;20740;-79
2021/12/14 14:48:18;;;;;;;31.90;17.37;;;;;;;;;;5069539;28;20233;-80
2021/12/14 14:50:48;;;;;;;30.97;18.73;;;;;;;;;;5076580;28;20536;-78
2021/12/14 14:53:17;;;;;;;35.70;16.90;;;;;;;;;;5078442;28;20266;-78
2021/12/14 14:55:46;;;;;;;32.73;17.37;;;;;;;;;;5076086;28;20294;-79
2021/12/14 14:58:17;;;;;;;32.57;16.57;;;;;;;;;;5082954;22;20298;-81
2021/12/14 15:00:47;;;;;;;30.13;16.93;;;;;;;;;;5034519;28;20231;-81
2021/12/14 15:03:17;;;;;;;33.23;16.37;;;;;;;;;;5037183;28;20214;-81